Time;durP1;ratioP1;P1;durP2;ratioP2;P2;SDS_P1;SDS_P2;PMS_P1;PMS_P2;Temp;Humidity;BMP_temperature;BMP_pressure;BME280_temperature;BME280_humidity;BME280_pressure;Samples;Min_cycle;Max_cycle;Signal;HPM_P1;HPM_P2
2023/04/19 00:01:49;;;;;;;10.35;4.70;;;25.00;99.90;;;;;;4993490;28;20096;-45
2023/04/19 00:04:15;;;;;;;10.05;4.80;;;25.00;99.90;;;;;;4994701;28;20030;-44
2023/04/19 00:06:41;;;;;;;8.68;4.45;;;25.00;99.90;;;;;;4994491;28;20029;-44
2023/04/19 00:09:07;;;;;;;7.78;4.00;;;25.00;99.90;;;;;;4994702;28;20018;-44
2023/04/19 00:11:33;;;;;;;9.48;4.63;;;25.00;99.90;;;;;;4994514;28;20511;-44
2023/04/19 00:13:59;;;;;;;9.48;4.43;;;25.00;99.90;;;;;;4993261;28;20117;-44
2023/04/19 00:16:25;;;;;;;9.70;4.38;;;25.00;99.90;;;;;;4993406;28;20445;-44
2023/04/19 00:18:51;;;;;;;7.72;4.30;;;25.00;99.90;;;;;;4994591;28;20038;-44
2023/04/19 00:21:16;;;;;;;7.20;5.05;;;25.00;99.90;;;;;;4994240;28;20160;-44
2023/04/19 00:23:42;;;;;;;7.57;5.07;;;24.90;99.90;;;;;;5004934;28;20033;-44
2023/04/19 00:26:10;;;;;;;11.27;4.60;;;25.00;99.90;;;;;;4996416;28;20113;-44
2023/04/19 00:28:36;;;;;;;8.27;4.35;;;25.00;99.90;;;;;;4994466;28;20499;-44
2023/04/19 00:31:02;;;;;;;8.25;4.30;;;25.00;99.90;;;;;;5007300;28;20113;-45
2023/04/19 00:33:27;;;;;;;10.52;4.10;;;25.00;99.90;;;;;;4994116;28;20045;-44
2023/04/19 00:35:53;;;;;;;10.38;4.55;;;25.00;99.90;;;;;;4992932;28;20464;-44
2023/04/19 00:38:19;;;;;;;10.45;4.38;;;24.90;99.90;;;;;;4994091;28;20085;-44
2023/04/19 00:40:45;;;;;;;10.35;4.78;;;24.90;99.90;;;;;;4993836;28;20113;-44
2023/04/19 00:43:11;;;;;;;8.55;3.60;;;24.90;99.90;;;;;;4993935;28;20519;-44
2023/04/19 00:45:37;;;;;;;8.02;4.32;;;24.90;99.90;;;;;;4994152;28;20023;-45
2023/04/19 00:48:03;;;;;;;6.30;3.78;;;24.90;99.90;;;;;;4996441;28;20077;-45
2023/04/19 00:50:29;;;;;;;7.85;4.45;;;24.90;99.90;;;;;;5003230;28;20042;-45
2023/04/19 00:52:56;;;;;;;8.02;4.53;;;24.90;99.90;;;;;;4993951;28;21093;-45
2023/04/19 00:55:23;;;;;;;8.00;4.57;;;24.90;99.90;;;;;;4994084;28;20030;-44
2023/04/19 00:57:50;;;;;;;8.85;4.50;;;24.90;99.90;;;;;;4993549;28;20404;-45
2023/04/19 01:00:16;;;;;;;8.02;3.80;;;24.80;99.90;;;;;;5010224;23;20050;-56
2023/04/19 01:02:42;;;;;;;7.13;4.50;;;24.80;99.90;;;;;;4993669;28;20444;-57
2023/04/19 01:05:08;;;;;;;6.18;4.00;;;24.90;99.90;;;;;;4993239;28;20026;-57
2023/04/19 01:07:34;;;;;;;11.38;4.97;;;24.80;99.90;;;;;;4993534;28;20077;-57
2023/04/19 01:10:00;;;;;;;7.45;4.30;;;24.80;99.90;;;;;;4993423;28;20031;-57
2023/04/19 01:12:26;;;;;;;7.88;4.20;;;24.80;99.90;;;;;;4993748;28;20125;-56
2023/04/19 01:14:51;;;;;;;6.00;4.35;;;24.80;99.90;;;;;;4993385;28;20072;-57
2023/04/19 01:17:18;;;;;;;7.68;4.55;;;24.80;99.90;;;;;;4992045;28;20041;-56
2023/04/19 01:19:45;;;;;;;5.63;3.63;;;24.80;99.90;;;;;;4993457;28;20033;-57
2023/04/19 01:22:23;;;;;;;7.27;3.97;;;24.80;99.90;;;;;;4993206;28;20279;-57
2023/04/19 01:24:50;;;;;;;7.40;4.00;;;24.80;99.90;;;;;;4992931;28;20061;-56
2023/04/19 01:27:16;;;;;;;8.77;4.35;;;24.70;99.90;;;;;;4991936;28;20026;-57
2023/04/19 01:29:42;;;;;;;7.55;3.65;;;24.80;99.90;;;;;;4993022;28;20109;-58
2023/04/19 01:32:08;;;;;;;6.05;3.95;;;24.80;99.90;;;;;;4993028;28;20030;-58
2023/04/19 01:34:34;;;;;;;7.18;4.18;;;24.70;99.90;;;;;;4992848;28;20045;-58
2023/04/19 01:37:00;;;;;;;9.20;4.15;;;24.70;99.90;;;;;;4992925;28;20076;-58
2023/04/19 01:39:26;;;;;;;5.45;3.60;;;24.70;99.90;;;;;;4993061;28;20031;-57
2023/04/19 01:41:52;;;;;;;7.50;3.90;;;24.70;99.90;;;;;;4991492;28;20484;-58
2023/04/19 01:44:17;;;;;;;7.68;4.13;;;24.70;99.90;;;;;;4992790;28;20524;-57
2023/04/19 01:46:43;;;;;;;6.78;4.32;;;24.70;99.90;;;;;;4992666;28;20011;-57
2023/04/19 01:49:09;;;;;;;6.75;4.15;;;24.70;99.90;;;;;;4991491;28;20077;-59
2023/04/19 01:51:37;;;;;;;5.82;3.53;;;24.70;99.90;;;;;;4992679;28;20427;-57
2023/04/19 01:54:03;;;;;;;6.53;4.03;;;24.70;99.90;;;;;;4992599;28;20022;-57
2023/04/19 01:56:29;;;;;;;7.35;4.40;;;24.70;99.90;;;;;;5005782;28;20019;-57
2023/04/19 01:58:55;;;;;;;7.38;4.50;;;24.70;99.90;;;;;;4992595;28;20556;-57
2023/04/19 02:01:21;;;;;;;7.93;3.92;;;24.70;99.90;;;;;;4991736;28;20134;-58
2023/04/19 02:03:46;;;;;;;9.52;4.15;;;24.70;99.90;;;;;;4992706;28;20091;-59
2023/04/19 02:06:13;;;;;;;6.85;4.50;;;24.70;99.90;;;;;;4992499;28;20026;-58
2023/04/19 02:08:40;;;;;;;11.18;4.38;;;24.70;99.90;;;;;;4992576;28;20018;-57
2023/04/19 02:11:15;;;;;;;8.05;4.10;;;24.70;99.90;;;;;;4992720;28;20026;-58
2023/04/19 02:13:41;;;;;;;8.32;4.47;;;24.70;99.90;;;;;;4992399;28;20029;-58
2023/04/19 02:16:08;;;;;;;7.25;4.55;;;24.60;99.90;;;;;;4991784;28;20022;-56
2023/04/19 02:18:37;;;;;;;9.38;4.95;;;24.60;99.90;;;;;;4992442;28;20022;-56
2023/04/19 02:21:04;;;;;;;6.05;4.18;;;24.60;99.90;;;;;;4992431;28;20129;-58
2023/04/19 02:23:30;;;;;;;8.40;4.35;;;24.60;99.90;;;;;;4992323;28;20468;-57
2023/04/19 02:25:56;;;;;;;7.88;4.90;;;24.60;99.90;;;;;;4992263;28;20026;-58
2023/04/19 02:28:22;;;;;;;7.25;4.35;;;24.60;99.90;;;;;;4990609;28;20030;-57
2023/04/19 02:30:47;;;;;;;5.93;4.07;;;24.60;99.90;;;;;;4992482;28;20031;-58
2023/04/19 02:33:14;;;;;;;8.38;5.00;;;24.60;99.90;;;;;;4992188;28;20507;-56
2023/04/19 02:35:40;;;;;;;8.30;4.60;;;24.60;99.90;;;;;;5001959;28;20036;-56
2023/04/19 02:38:06;;;;;;;8.18;4.43;;;24.60;99.90;;;;;;4995378;28;20543;-57
2023/04/19 02:40:32;;;;;;;7.75;4.65;;;24.60;99.90;;;;;;4992347;28;20476;-57
2023/04/19 02:42:57;;;;;;;10.65;5.85;;;24.60;99.90;;;;;;4992240;28;20038;-56
2023/04/19 02:45:23;;;;;;;7.55;4.53;;;24.60;99.90;;;;;;4991037;28;20461;-56
2023/04/19 02:47:49;;;;;;;8.80;4.30;;;24.60;99.90;;;;;;4992316;28;20030;-57
2023/04/19 02:50:16;;;;;;;7.53;4.40;;;24.60;99.90;;;;;;4979303;28;20045;-57
2023/04/19 02:52:42;;;;;;;7.10;4.37;;;24.50;99.90;;;;;;4992046;28;20503;-58
2023/04/19 02:55:08;;;;;;;6.00;4.07;;;24.60;99.90;;;;;;4991984;28;20248;-58
2023/04/19 02:57:33;;;;;;;6.68;4.22;;;24.50;99.90;;;;;;4991799;28;20397;-57
2023/04/19 02:59:59;;;;;;;8.63;4.38;;;24.50;99.90;;;;;;5007691;23;20054;-52
2023/04/19 03:02:25;;;;;;;6.45;4.40;;;24.50;99.90;;;;;;4992186;28;20030;-52
2023/04/19 03:04:54;;;;;;;7.90;4.00;;;24.50;99.90;;;;;;4991889;28;20163;-52
2023/04/19 03:07:20;;;;;;;6.85;4.30;;;24.50;99.90;;;;;;4992121;28;20027;-54
2023/04/19 03:09:45;;;;;;;8.70;5.30;;;24.50;99.90;;;;;;4991823;28;20032;-53
2023/04/19 03:12:11;;;;;;;6.90;4.32;;;24.50;99.90;;;;;;5000322;28;20026;-52
2023/04/19 03:14:37;;;;;;;10.35;5.32;;;24.50;99.90;;;;;;4996229;28;20038;-52
2023/04/19 03:17:03;;;;;;;6.88;4.28;;;24.50;99.90;;;;;;4992163;28;20034;-53
2023/04/19 03:19:29;;;;;;;5.72;4.07;;;24.40;99.90;;;;;;4991689;28;20035;-53
2023/04/19 03:21:55;;;;;;;7.90;4.45;;;24.50;99.90;;;;;;4991972;28;20026;-52
2023/04/19 03:24:31;;;;;;;9.05;4.68;;;24.50;99.90;;;;;;4991952;28;20037;-53
2023/04/19 03:26:57;;;;;;;8.50;4.57;;;24.40;99.90;;;;;;4979691;28;20019;-51
2023/04/19 03:29:23;;;;;;;8.30;4.63;;;24.40;99.90;;;;;;4995576;28;20034;-52
2023/04/19 03:31:49;;;;;;;8.57;5.22;;;24.40;99.90;;;;;;4995110;28;20025;-52
2023/04/19 03:34:15;;;;;;;8.93;4.97;;;24.40;99.90;;;;;;4995174;28;20027;-53
2023/04/19 03:36:41;;;;;;;8.75;5.18;;;24.40;99.90;;;;;;4995160;28;20076;-53
2023/04/19 03:39:07;;;;;;;7.28;5.00;;;24.40;99.90;;;;;;4995157;28;20027;-52
2023/04/19 03:41:32;;;;;;;10.63;6.25;;;24.40;99.90;;;;;;4995344;28;20026;-52
2023/04/19 03:43:58;;;;;;;9.27;5.72;;;24.30;99.90;;;;;;5003179;28;20102;-52
2023/04/19 03:46:24;;;;;;;12.13;5.85;;;24.30;99.90;;;;;;5000287;28;20049;-53
2023/04/19 03:48:51;;;;;;;8.93;5.05;;;24.30;99.90;;;;;;4995159;28;20018;-52
2023/04/19 03:51:17;;;;;;;10.13;6.43;;;24.30;99.90;;;;;;4995144;28;20354;-53
2023/04/19 03:53:43;;;;;;;8.93;5.53;;;24.30;99.90;;;;;;4982209;28;20025;-53
2023/04/19 03:56:09;;;;;;;13.27;6.38;;;24.30;99.90;;;;;;4995000;28;20489;-53
2023/04/19 03:58:36;;;;;;;8.57;5.95;;;24.30;99.90;;;;;;4994947;28;20085;-53
2023/04/19 04:01:02;;;;;;;9.93;6.30;;;24.30;99.90;;;;;;4995831;28;20050;-53
2023/04/19 04:03:28;;;;;;;10.50;6.43;;;24.30;99.90;;;;;;4994708;28;20532;-53
2023/04/19 04:05:53;;;;;;;10.32;6.05;;;24.30;99.90;;;;;;4994816;28;20113;-53
2023/04/19 04:08:19;;;;;;;8.80;5.43;;;24.30;99.90;;;;;;4994591;28;20014;-54
2023/04/19 04:10:45;;;;;;;11.50;6.10;;;24.30;99.90;;;;;;5003168;28;20112;-52
2023/04/19 04:13:11;;;;;;;8.07;5.70;;;24.30;99.90;;;;;;4999040;28;20022;-53
2023/04/19 04:15:36;;;;;;;12.95;6.57;;;24.30;99.90;;;;;;4994884;28;20026;-53
2023/04/19 04:18:02;;;;;;;10.65;5.72;;;24.30;99.90;;;;;;5007564;28;20034;-53
2023/04/19 04:20:28;;;;;;;10.32;5.90;;;24.30;99.90;;;;;;4994616;28;20025;-53
2023/04/19 04:22:54;;;;;;;8.57;5.57;;;24.30;99.90;;;;;;4994421;28;20488;-53
2023/04/19 04:25:20;;;;;;;10.10;5.95;;;24.30;99.90;;;;;;4994460;28;20033;-54
2023/04/19 04:27:46;;;;;;;8.45;5.28;;;24.30;99.90;;;;;;4994435;28;20511;-53
2023/04/19 04:30:12;;;;;;;10.52;6.40;;;24.20;99.90;;;;;;4994277;28;20118;-54
2023/04/19 04:32:39;;;;;;;9.48;5.25;;;24.30;99.90;;;;;;4994281;28;20495;-52
2023/04/19 04:35:07;;;;;;;8.77;4.88;;;24.20;99.90;;;;;;4994433;28;20384;-53
2023/04/19 04:37:34;;;;;;;7.68;5.60;;;24.20;99.90;;;;;;4994086;28;20057;-52
2023/04/19 04:40:00;;;;;;;10.43;5.38;;;24.20;99.90;;;;;;4992036;28;20104;-50
2023/04/19 04:42:26;;;;;;;8.05;5.18;;;24.20;99.90;;;;;;4994081;28;20365;-50
2023/04/19 04:44:56;;;;;;;7.70;5.47;;;24.20;99.90;;;;;;4994058;28;20022;-50
2023/04/19 04:47:22;;;;;;;8.23;4.97;;;24.20;99.90;;;;;;4994106;28;20109;-51
2023/04/19 04:49:48;;;;;;;10.50;5.38;;;24.20;99.90;;;;;;4993877;28;20025;-51
2023/04/19 04:52:14;;;;;;;8.02;4.65;;;24.20;99.90;;;;;;4992704;28;20026;-51
2023/04/19 04:54:40;;;;;;;9.25;4.95;;;24.20;99.90;;;;;;4993658;28;20473;-51
2023/04/19 04:57:06;;;;;;;9.10;5.07;;;24.20;99.90;;;;;;4993952;28;20062;-52
2023/04/19 04:59:32;;;;;;;7.88;4.45;;;24.20;99.90;;;;;;4993508;28;20331;-50
2023/04/19 05:01:57;;;;;;;7.68;4.68;;;24.10;99.90;;;;;;4993756;28;20027;-51
2023/04/19 05:04:23;;;;;;;11.43;5.45;;;24.10;99.90;;;;;;4993603;28;20026;-52
2023/04/19 05:06:49;;;;;;;9.52;4.32;;;24.10;99.90;;;;;;4993532;28;20113;-52
2023/04/19 05:09:15;;;;;;;9.32;4.75;;;24.10;99.90;;;;;;4993592;28;20023;-52
2023/04/19 05:11:40;;;;;;;7.65;4.10;;;24.10;99.90;;;;;;5006650;28;20101;-52
2023/04/19 05:14:06;;;;;;;9.90;5.03;;;24.10;99.90;;;;;;4993737;28;20019;-52
2023/04/19 05:16:32;;;;;;;6.70;4.30;;;24.10;99.90;;;;;;4992169;28;20153;-52
2023/04/19 05:18:58;;;;;;;8.02;4.10;;;24.10;99.90;;;;;;4993335;28;20101;-52
2023/04/19 05:21:25;;;;;;;7.05;4.18;;;24.10;99.90;;;;;;4992171;28;20476;-51
2023/04/19 05:23:52;;;;;;;7.82;4.43;;;24.10;99.90;;;;;;5001281;28;20117;-50
2023/04/19 05:26:18;;;;;;;8.83;4.97;;;24.00;99.90;;;;;;4998174;28;20022;-50
2023/04/19 05:28:44;;;;;;;9.55;5.05;;;24.10;99.90;;;;;;4993138;28;20032;-51
2023/04/19 05:31:10;;;;;;;10.23;4.18;;;24.00;99.90;;;;;;4993398;28;20101;-50
2023/04/19 05:33:36;;;;;;;9.40;4.13;;;24.10;99.90;;;;;;4980275;28;20024;-49
2023/04/19 05:36:02;;;;;;;7.35;3.95;;;24.00;99.90;;;;;;4993018;28;20385;-50
2023/04/19 05:38:28;;;;;;;8.98;5.00;;;24.00;99.90;;;;;;4992724;28;20037;-50
2023/04/19 05:40:54;;;;;;;10.32;4.38;;;24.00;99.90;;;;;;4992976;28;20031;-50
2023/04/19 05:43:20;;;;;;;13.07;4.25;;;24.00;99.90;;;;;;4992763;28;20030;-51
2023/04/19 05:45:46;;;;;;;9.38;4.25;;;24.00;99.90;;;;;;4992808;28;20010;-50
2023/04/19 05:48:12;;;;;;;6.68;4.65;;;24.00;99.90;;;;;;4992698;28;20499;-51
2023/04/19 05:50:38;;;;;;;6.53;3.90;;;24.00;99.90;;;;;;4992172;28;20033;-52
2023/04/19 05:53:04;;;;;;;13.40;4.68;;;23.90;99.90;;;;;;4992639;28;20058;-51
2023/04/19 05:55:30;;;;;;;8.02;3.83;;;23.90;99.90;;;;;;4992687;28;20057;-53
2023/04/19 05:57:59;;;;;;;8.43;4.20;;;23.90;99.90;;;;;;4992631;28;20042;-53
2023/04/19 06:00:27;;;;;;;9.07;4.53;;;23.90;99.90;;;;;;4992130;28;20121;-51
2023/04/19 06:02:52;;;;;;;7.93;3.90;;;23.90;99.90;;;;;;4992366;28;20026;-51
2023/04/19 06:05:18;;;;;;;7.95;3.90;;;23.90;99.90;;;;;;4992656;28;20108;-53
2023/04/19 06:07:44;;;;;;;6.32;3.78;;;23.90;99.90;;;;;;4991329;28;20034;-52
2023/04/19 06:10:10;;;;;;;7.50;4.20;;;23.90;99.90;;;;;;4992703;28;20038;-52
2023/04/19 06:12:36;;;;;;;8.02;4.82;;;23.90;99.90;;;;;;4992561;28;20022;-52
2023/04/19 06:15:02;;;;;;;9.13;4.43;;;23.90;99.90;;;;;;4992307;28;20026;-52
2023/04/19 06:17:27;;;;;;;8.23;4.63;;;23.90;99.90;;;;;;4992173;28;20046;-50
2023/04/19 06:19:53;;;;;;;8.35;4.15;;;23.90;99.90;;;;;;4992235;28;20019;-51
2023/04/19 06:22:20;;;;;;;9.63;4.45;;;23.90;99.90;;;;;;4992483;28;20025;-51
2023/04/19 06:24:49;;;;;;;8.23;3.95;;;23.90;99.90;;;;;;4992247;28;20089;-51
2023/04/19 06:27:15;;;;;;;9.95;4.30;;;23.90;99.90;;;;;;4992155;28;20061;-52
2023/04/19 06:29:41;;;;;;;8.10;4.15;;;23.80;99.90;;;;;;4992545;28;20026;-51
2023/04/19 06:32:08;;;;;;;8.10;4.60;;;23.80;99.90;;;;;;4992151;28;20022;-51
2023/04/19 06:34:34;;;;;;;8.07;3.58;;;23.80;99.90;;;;;;4992215;28;20386;-55
2023/04/19 06:37:00;;;;;;;9.18;4.30;;;23.80;99.90;;;;;;4992184;28;20034;-51
2023/04/19 06:39:26;;;;;;;9.98;4.60;;;23.80;99.90;;;;;;4992244;28;20048;-52
2023/04/19 06:41:52;;;;;;;8.68;5.18;;;23.80;99.90;;;;;;4992113;28;20025;-52
2023/04/19 06:44:18;;;;;;;9.20;4.18;;;23.80;99.90;;;;;;4992328;28;20031;-51
2023/04/19 06:46:44;;;;;;;9.25;4.28;;;23.80;99.90;;;;;;4992123;28;20026;-51
2023/04/19 06:49:10;;;;;;;7.22;4.93;;;23.80;99.90;;;;;;4992139;28;20034;-51
2023/04/19 06:51:38;;;;;;;8.60;5.03;;;23.80;99.90;;;;;;4992345;28;20026;-51
2023/04/19 06:54:03;;;;;;;9.35;5.28;;;23.80;99.90;;;;;;4992010;28;20061;-51
2023/04/19 06:56:44;;;;;;;11.52;5.57;;;23.80;99.90;;;;;;4991975;28;20046;-51
2023/04/19 06:59:11;;;;;;;8.90;5.93;;;23.80;99.90;;;;;;4990736;28;20039;-52
2023/04/19 07:01:37;;;;;;;11.63;6.65;;;23.80;99.90;;;;;;4991967;28;20620;-51
2023/04/19 07:04:03;;;;;;;11.20;6.35;;;23.80;99.90;;;;;;4995801;28;20026;-52
2023/04/19 07:06:29;;;;;;;10.23;6.43;;;23.80;99.90;;;;;;4995601;28;20018;-50
2023/04/19 07:08:55;;;;;;;8.88;6.30;;;23.80;99.90;;;;;;4995800;28;20465;-50
2023/04/19 07:11:21;;;;;;;10.07;6.50;;;23.80;99.90;;;;;;4994466;28;20027;-51
2023/04/19 07:13:47;;;;;;;13.30;6.90;;;23.80;99.90;;;;;;4995639;28;20018;-51
2023/04/19 07:16:13;;;;;;;13.85;7.68;;;23.80;99.90;;;;;;4995751;28;20097;-51
2023/04/19 07:18:39;;;;;;;11.60;8.13;;;23.80;99.90;;;;;;4995577;28;20034;-51
2023/04/19 07:21:05;;;;;;;15.45;8.32;;;23.80;99.90;;;;;;4995436;28;20026;-49
2023/04/19 07:23:31;;;;;;;13.82;8.40;;;23.80;99.90;;;;;;4995631;28;20101;-50
2023/04/19 07:25:57;;;;;;;13.38;8.85;;;23.80;99.90;;;;;;4995373;28;20023;-50
2023/04/19 07:28:22;;;;;;;12.77;8.57;;;23.80;99.90;;;;;;4995435;28;20023;-50
2023/04/19 07:30:48;;;;;;;13.20;8.40;;;23.80;99.90;;;;;;4993878;28;20433;-51
2023/04/19 07:33:14;;;;;;;15.00;9.48;;;23.80;99.90;;;;;;4995436;28;20034;-50
2023/04/19 07:35:40;;;;;;;16.55;9.13;;;23.80;99.90;;;;;;4995250;28;20023;-51
2023/04/19 07:38:06;;;;;;;15.50;9.45;;;23.80;99.90;;;;;;4994958;28;20034;-51
2023/04/19 07:40:32;;;;;;;16.58;9.88;;;23.80;99.90;;;;;;5006180;28;20096;-51
2023/04/19 07:42:57;;;;;;;12.02;8.65;;;23.80;99.90;;;;;;4997014;28;20034;-51
2023/04/19 07:45:23;;;;;;;14.48;8.75;;;23.80;99.90;;;;;;4995252;28;20033;-51
2023/04/19 07:47:49;;;;;;;17.05;9.02;;;23.80;99.90;;;;;;4995201;28;20030;-51
2023/04/19 07:50:15;;;;;;;14.48;8.77;;;23.80;99.90;;;;;;4995282;28;20081;-50
2023/04/19 07:52:41;;;;;;;16.17;8.70;;;23.80;99.90;;;;;;4995009;28;20031;-50
2023/04/19 07:55:07;;;;;;;13.18;7.97;;;23.80;99.90;;;;;;4994779;28;20038;-50
2023/04/19 07:57:34;;;;;;;13.73;8.63;;;23.80;99.90;;;;;;4994725;28;20061;-51
2023/04/19 08:00:01;;;;;;;13.10;8.65;;;23.80;99.90;;;;;;4994674;28;20080;-51
2023/04/19 08:02:26;;;;;;;12.48;7.65;;;23.80;99.90;;;;;;4995095;28;20113;-51
2023/04/19 08:04:53;;;;;;;12.15;8.15;;;23.80;99.90;;;;;;4994777;28;20536;-51
2023/04/19 08:07:19;;;;;;;13.40;9.20;;;23.90;99.90;;;;;;4995241;28;20033;-53
2023/04/19 08:09:44;;;;;;;14.38;8.05;;;23.90;99.90;;;;;;4994811;28;20023;-51
2023/04/19 08:12:10;;;;;;;14.95;8.30;;;23.90;99.90;;;;;;4994602;28;20073;-51
2023/04/19 08:14:38;;;;;;;13.85;7.25;;;23.90;99.90;;;;;;4993377;28;20037;-51
2023/04/19 08:17:04;;;;;;;14.45;7.85;;;23.90;99.90;;;;;;4994452;28;20038;-51
2023/04/19 08:19:30;;;;;;;10.75;7.20;;;23.90;99.90;;;;;;4994460;28;20034;-51
2023/04/19 08:21:56;;;;;;;10.50;6.85;;;23.90;99.90;;;;;;4994527;28;20050;-51
2023/04/19 08:24:22;;;;;;;12.02;7.80;;;23.90;99.90;;;;;;4994482;28;20108;-51
2023/04/19 08:26:52;;;;;;;13.80;7.25;;;23.90;99.90;;;;;;4994894;28;20026;-51
2023/04/19 08:29:21;;;;;;;10.93;6.82;;;23.90;99.90;;;;;;4994543;28;20377;-50
2023/04/19 08:31:46;;;;;;;12.82;7.05;;;23.90;99.90;;;;;;4994431;28;20069;-51
2023/04/19 08:34:12;;;;;;;13.07;6.93;;;24.00;99.90;;;;;;4994190;28;20022;-51
2023/04/19 08:36:38;;;;;;;12.15;7.07;;;24.00;99.90;;;;;;4997672;28;20026;-51
2023/04/19 08:39:04;;;;;;;11.25;6.57;;;23.90;99.90;;;;;;5003357;28;20412;-51
2023/04/19 08:41:30;;;;;;;10.68;6.35;;;24.00;99.90;;;;;;4993848;28;20034;-51
2023/04/19 08:43:57;;;;;;;12.27;6.97;;;23.90;99.90;;;;;;5002741;28;20026;-51
2023/04/19 08:46:23;;;;;;;10.50;6.13;;;24.00;99.90;;;;;;4997867;28;20477;-51
2023/04/19 08:48:50;;;;;;;12.98;6.57;;;24.00;99.90;;;;;;4994189;28;20500;-54
2023/04/19 08:51:19;;;;;;;11.18;6.90;;;24.00;99.90;;;;;;4993710;28;20122;-53
2023/04/19 08:53:46;;;;;;;10.38;5.53;;;24.00;99.90;;;;;;4993797;28;20018;-51
2023/04/19 08:56:13;;;;;;;8.70;5.20;;;24.00;99.90;;;;;;4993866;28;20034;-51
2023/04/19 08:58:39;;;;;;;9.20;5.72;;;24.00;99.90;;;;;;4993527;28;20476;-51
2023/04/19 09:01:06;;;;;;;7.60;5.38;;;24.00;99.90;;;;;;4993469;28;20058;-51
2023/04/19 09:03:32;;;;;;;11.40;5.60;;;24.10;99.90;;;;;;4999182;28;20025;-52
2023/04/19 09:06:00;;;;;;;11.05;5.57;;;24.10;99.90;;;;;;5001294;28;20094;-51
2023/04/19 09:08:28;;;;;;;9.57;5.63;;;24.10;99.90;;;;;;4992099;28;20022;-51
2023/04/19 09:10:59;;;;;;;7.78;5.10;;;24.00;99.90;;;;;;4993506;28;20053;-52
2023/04/19 09:13:25;;;;;;;9.23;4.90;;;24.10;99.90;;;;;;4993525;28;20023;-53
2023/04/19 09:15:52;;;;;;;9.77;5.22;;;24.10;99.90;;;;;;4992451;28;20035;-53
2023/04/19 09:18:18;;;;;;;7.80;5.10;;;24.10;99.90;;;;;;5006435;28;20031;-52
2023/04/19 09:20:44;;;;;;;8.57;5.53;;;24.10;99.90;;;;;;4993301;28;20339;-52
2023/04/19 09:23:15;;;;;;;10.43;5.40;;;24.10;99.90;;;;;;4993454;28;20030;-53
2023/04/19 09:25:59;;;;;;;9.25;6.40;;;24.10;99.90;;;;;;4993279;28;20026;-51
2023/04/19 09:28:25;;;;;;;7.95;5.32;;;24.10;99.90;;;;;;4993054;28;20038;-50
2023/04/19 09:30:51;;;;;;;9.15;5.60;;;24.10;99.90;;;;;;4993343;28;20121;-51
2023/04/19 09:33:49;;;;;;;6.60;4.55;;;24.10;99.90;;;;;;4992844;28;20114;-52
2023/04/19 09:36:31;;;;;;;11.63;5.57;;;24.10;99.90;;;;;;4970767;28;20038;-51
2023/04/19 09:38:58;;;;;;;9.52;4.82;;;24.10;99.90;;;;;;4982078;28;20045;-51
2023/04/19 09:41:24;;;;;;;11.27;5.22;;;24.10;99.90;;;;;;4992785;28;20489;-51
2023/04/19 09:43:51;;;;;;;7.75;5.10;;;24.10;99.90;;;;;;4993000;28;20038;-50
2023/04/19 09:46:35;;;;;;;13.47;7.47;;;24.10;99.90;;;;;;4991272;28;20117;-52
2023/04/19 09:49:13;;;;;;;10.90;6.47;;;24.10;99.90;;;;;;4991376;28;20065;-56
2023/04/19 09:51:46;;;;;;;9.63;6.50;;;24.10;99.90;;;;;;4992680;28;20101;-51
2023/04/19 09:54:14;;;;;;;15.43;7.25;;;24.10;99.90;;;;;;4992602;28;20065;-51
2023/04/19 09:56:40;;;;;;;;;;;24.10;99.90;;;;;;4995792;28;20017;-51
2023/04/19 09:59:07;;;;;;;13.10;7.32;;;24.10;99.90;;;;;;5002641;28;19959;-52
2023/04/19 10:01:54;;;;;;;11.07;7.38;;;24.10;99.90;;;;;;4992048;28;20100;-51
2023/04/19 10:04:20;;;;;;;;;;;24.10;99.90;;;;;;4991901;28;20026;-52
2023/04/19 10:06:53;;;;;;;9.65;6.47;;;24.20;99.90;;;;;;4992062;28;19916;-51
2023/04/19 10:09:21;;;;;;;10.77;7.18;;;24.10;99.90;;;;;;4992458;28;20129;-51
2023/04/19 10:11:52;;;;;;;13.90;6.80;;;24.20;99.90;;;;;;5005373;28;20030;-51
2023/04/19 10:14:25;;;;;;;9.57;6.10;;;24.20;99.90;;;;;;4992321;28;20018;-51
2023/04/19 10:16:51;;;;;;;13.95;7.00;;;24.20;99.90;;;;;;4992363;28;20018;-51
2023/04/19 10:19:19;;;;;;;8.35;5.45;;;24.20;99.90;;;;;;4990809;28;20034;-50
2023/04/19 10:21:47;;;;;;;7.82;5.55;;;24.20;99.90;;;;;;4992364;28;20019;-51
2023/04/19 10:24:14;;;;;;;9.48;6.00;;;24.20;99.90;;;;;;4992333;28;20101;-51
2023/04/19 10:27:05;;;;;;;10.82;6.18;;;24.20;99.90;;;;;;4992301;28;20044;-51
2023/04/19 10:29:54;;;;;;;8.98;6.00;;;24.20;99.90;;;;;;4992134;28;20105;-52
2023/04/19 10:32:19;;;;;;;9.98;5.78;;;24.20;99.90;;;;;;4992270;28;20026;-52
2023/04/19 10:34:46;;;;;;;10.02;5.82;;;24.20;99.90;;;;;;4974717;28;20024;-52
2023/04/19 10:37:15;;;;;;;12.50;6.18;;;24.20;99.90;;;;;;4992131;28;20077;-52
2023/04/19 10:39:43;;;;;;;11.30;5.50;;;24.20;99.90;;;;;;4996259;28;20113;-52
2023/04/19 10:42:09;;;;;;;10.50;5.82;;;24.20;99.90;;;;;;4996398;28;20102;-52
2023/04/19 10:44:35;;;;;;;10.05;5.07;;;24.30;99.90;;;;;;4996257;28;20033;-52
2023/04/19 10:47:04;;;;;;;9.13;5.32;;;24.30;99.90;;;;;;4996154;28;20440;-51
2023/04/19 10:49:30;;;;;;;10.00;5.68;;;24.30;99.90;;;;;;4996061;28;20034;-49
2023/04/19 10:51:59;;;;;;;8.07;5.05;;;24.30;99.90;;;;;;5009172;28;20101;-51
2023/04/19 10:54:37;;;;;;;9.48;5.47;;;24.30;99.90;;;;;;4996241;28;20026;-53
2023/04/19 10:57:07;;;;;;;8.82;5.65;;;24.30;99.90;;;;;;4995918;28;20015;-52
2023/04/19 10:59:34;;;;;;;9.23;5.25;;;24.30;99.90;;;;;;4995834;28;20107;-51
2023/04/19 11:02:03;;;;;;;7.88;5.35;;;24.30;99.90;;;;;;4995953;28;20073;-52
2023/04/19 11:04:31;;;;;;;7.53;5.38;;;24.30;99.90;;;;;;4995866;28;20076;-52
2023/04/19 11:07:06;;;;;;;10.35;5.60;;;24.30;99.90;;;;;;4995657;28;20019;-52
2023/04/19 11:09:34;;;;;;;9.20;5.55;;;24.40;99.90;;;;;;4996181;28;20421;-51
2023/04/19 11:12:03;;;;;;;11.27;5.78;;;24.40;99.90;;;;;;5007736;28;20069;-52
2023/04/19 11:14:31;;;;;;;9.13;5.63;;;24.40;99.90;;;;;;4995771;28;20027;-51
2023/04/19 11:16:58;;;;;;;10.80;5.38;;;24.40;99.90;;;;;;4995824;28;20030;-51
2023/04/19 11:19:24;;;;;;;10.23;5.80;;;24.40;99.90;;;;;;4995429;28;20492;-51
2023/04/19 11:21:50;;;;;;;8.85;5.30;;;24.40;99.90;;;;;;4995369;28;20080;-52
2023/04/19 11:24:17;;;;;;;13.23;5.72;;;24.40;99.90;;;;;;4995434;28;20025;-51
2023/04/19 11:26:47;;;;;;;8.30;5.25;;;24.40;99.90;;;;;;4995287;28;20049;-50
2023/04/19 11:29:14;;;;;;;13.43;5.22;;;24.40;99.90;;;;;;4995524;28;20376;-50
2023/04/19 11:31:42;;;;;;;7.07;5.32;;;24.40;99.90;;;;;;4995045;28;20465;-51
2023/04/19 11:34:08;;;;;;;8.23;4.93;;;24.40;99.90;;;;;;4995156;28;20105;-50
2023/04/19 11:36:35;;;;;;;9.75;4.95;;;24.40;99.90;;;;;;4995158;28;20177;-50
2023/04/19 11:39:05;;;;;;;9.05;5.00;;;24.40;99.90;;;;;;4995208;28;20057;-50
2023/04/19 11:41:38;;;;;;;9.15;5.22;;;24.40;99.90;;;;;;4995135;28;20488;-50
2023/04/19 11:44:11;;;;;;;8.38;4.60;;;24.40;99.90;;;;;;4995240;28;20103;-51
2023/04/19 11:46:37;;;;;;;10.15;5.45;;;24.40;99.90;;;;;;4994954;28;20499;-50
2023/04/19 11:49:02;;;;;;;7.57;4.78;;;24.40;99.90;;;;;;4995208;28;20030;-50
2023/04/19 11:51:29;;;;;;;9.27;4.88;;;24.40;99.90;;;;;;5008424;28;20044;-51
2023/04/19 11:53:55;;;;;;;7.57;4.47;;;24.40;99.90;;;;;;4993859;28;20022;-51
2023/04/19 11:56:21;;;;;;;9.82;4.55;;;24.30;99.90;;;;;;4994974;28;20137;-50
2023/04/19 11:58:47;;;;;;;8.83;5.20;;;24.40;99.90;;;;;;4994683;28;20065;-53
2023/04/19 12:01:20;;;;;;;10.32;4.78;;;24.40;99.90;;;;;;4994697;28;20839;-51
2023/04/19 12:03:55;;;;;;;12.63;5.18;;;24.40;99.90;;;;;;4994829;28;20026;-51
2023/04/19 12:06:26;;;;;;;9.57;5.00;;;24.30;99.90;;;;;;4994446;28;20034;-51
2023/04/19 12:08:54;;;;;;;8.07;5.10;;;24.30;99.90;;;;;;4993269;28;20031;-51
2023/04/19 12:11:23;;;;;;;12.02;5.25;;;24.40;99.90;;;;;;4994250;28;20050;-51
2023/04/19 12:14:13;;;;;;;8.07;4.70;;;24.40;99.90;;;;;;4994490;28;20069;-50
2023/04/19 12:16:40;;;;;;;9.02;4.82;;;24.40;99.90;;;;;;4994506;28;20038;-51
2023/04/19 12:19:13;;;;;;;12.45;4.97;;;24.40;99.90;;;;;;4994205;28;20035;-52
2023/04/19 12:21:40;;;;;;;8.95;4.88;;;24.40;99.90;;;;;;4994331;28;20053;-51
2023/04/19 12:24:06;;;;;;;9.02;4.82;;;24.40;99.90;;;;;;4994186;28;20388;-50
2023/04/19 12:26:33;;;;;;;11.50;4.85;;;24.40;99.90;;;;;;4994686;28;20022;-51
2023/04/19 12:29:01;;;;;;;8.82;4.28;;;24.40;99.90;;;;;;4994320;28;20083;-53
2023/04/19 12:31:27;;;;;;;10.40;4.10;;;24.40;99.90;;;;;;4994205;28;20027;-52
2023/04/19 12:33:53;;;;;;;9.02;4.20;;;24.40;99.90;;;;;;4994279;28;20609;-52
2023/04/19 12:36:20;;;;;;;11.38;4.80;;;24.40;99.90;;;;;;4994174;28;20404;-55
2023/04/19 12:38:45;;;;;;;7.68;4.10;;;24.40;99.90;;;;;;4994064;28;20112;-49
2023/04/19 12:41:11;;;;;;;15.93;4.75;;;24.40;99.90;;;;;;4993684;28;20469;-49
2023/04/19 12:43:37;;;;;;;18.60;5.85;;;24.40;99.90;;;;;;4994074;28;20033;-50